Time;durP1;ratioP1;P1;durP2;ratioP2;P2;SDS_P1;SDS_P2;PMS_P1;PMS_P2;Temp;Humidity;BMP_temperature;BMP_pressure;BME280_temperature;BME280_humidity;BME280_pressure;Samples;Min_cycle;Max_cycle;Signal;HPM_P1;HPM_P2
2021/03/10 00:02:16;;;;;;;31.02;13.48;;;2.70;94.50;;;;;;5072924;28;20024;-78
2021/03/10 00:04:42;;;;;;;24.25;12.80;;;2.70;94.60;;;;;;5072283;28;20039;-78
2021/03/10 00:07:07;;;;;;;26.52;13.68;;;2.60;94.60;;;;;;5053197;28;20020;-78
2021/03/10 00:09:33;;;;;;;27.55;14.02;;;2.60;94.70;;;;;;5065460;28;20363;-78
2021/03/10 00:11:58;;;;;;;33.50;16.13;;;2.60;94.80;;;;;;5071898;28;20020;-78
2021/03/10 00:14:24;;;;;;;23.38;12.18;;;2.60;94.90;;;;;;5053094;28;20028;-78
2021/03/10 00:16:49;;;;;;;23.88;11.88;;;2.70;95.00;;;;;;5067281;28;20017;-78
2021/03/10 00:19:15;;;;;;;23.50;12.30;;;2.70;95.00;;;;;;5073211;28;20028;-78
2021/03/10 00:21:40;;;;;;;25.23;14.02;;;2.70;94.90;;;;;;5072634;28;20021;-78
2021/03/10 00:24:06;;;;;;;29.55;14.18;;;2.80;95.00;;;;;;5057582;28;20033;-78
2021/03/10 00:26:32;;;;;;;27.90;15.05;;;2.80;95.00;;;;;;5034722;28;20029;-78
2021/03/10 00:28:57;;;;;;;31.35;14.60;;;2.90;94.90;;;;;;5073017;28;20100;-78
2021/03/10 00:31:23;;;;;;;27.92;14.75;;;3.00;94.90;;;;;;5064895;28;20131;-78
2021/03/10 00:33:48;;;;;;;28.73;14.35;;;3.10;94.90;;;;;;5055963;28;20614;-78
2021/03/10 00:36:14;;;;;;;27.85;15.02;;;3.20;94.90;;;;;;5072602;28;20466;-78
2021/03/10 00:38:39;;;;;;;22.10;13.10;;;3.30;94.80;;;;;;5055388;28;20061;-78
2021/03/10 00:41:05;;;;;;;22.67;12.68;;;3.30;94.80;;;;;;5065441;28;20029;-78
2021/03/10 00:43:30;;;;;;;25.88;14.02;;;3.30;94.80;;;;;;5072895;28;20029;-78
2021/03/10 00:45:56;;;;;;;25.10;13.80;;;3.40;94.70;;;;;;5055348;28;20029;-78
2021/03/10 00:48:21;;;;;;;23.73;13.10;;;3.40;94.60;;;;;;5052146;28;20025;-78
2021/03/10 00:50:47;;;;;;;23.25;12.90;;;3.50;94.60;;;;;;5063838;28;20079;-78
2021/03/10 00:53:13;;;;;;;20.77;11.50;;;3.50;94.60;;;;;;5072580;28;20104;-78
2021/03/10 00:55:38;;;;;;;24.23;12.13;;;3.50;94.60;;;;;;5072869;28;20111;-78
2021/03/10 00:58:04;;;;;;;19.17;10.10;;;3.60;94.50;;;;;;5055772;28;20021;-78
2021/03/10 01:00:30;;;;;;;19.30;11.80;;;3.60;94.50;;;;;;5055013;28;20089;-78
2021/03/10 01:02:55;;;;;;;20.45;11.70;;;3.60;94.50;;;;;;5056371;28;20078;-78
2021/03/10 01:05:21;;;;;;;18.05;10.98;;;3.70;94.50;;;;;;5074721;28;20029;-78
2021/03/10 01:07:46;;;;;;;16.15;9.32;;;3.70;94.40;;;;;;5076294;28;20020;-78
2021/03/10 01:10:12;;;;;;;18.95;10.35;;;3.70;94.40;;;;;;5074716;28;20028;-78
2021/03/10 01:12:38;;;;;;;21.13;11.18;;;3.60;94.30;;;;;;5056507;28;20490;-78
2021/03/10 01:15:07;;;;;;;19.15;10.55;;;3.60;94.20;;;;;;5056247;28;20039;-78
2021/03/10 01:17:32;;;;;;;16.25;10.40;;;3.50;94.20;;;;;;5055880;28;20032;-78
2021/03/10 01:19:58;;;;;;;20.52;11.27;;;3.40;94.10;;;;;;5056167;28;20029;-78
2021/03/10 01:22:24;;;;;;;17.95;10.07;;;3.40;94.10;;;;;;5064504;28;20071;-78
2021/03/10 01:24:49;;;;;;;18.52;10.45;;;3.20;94.20;;;;;;5062233;28;20053;-78
2021/03/10 01:27:17;;;;;;;17.88;10.27;;;3.10;94.20;;;;;;5076182;28;20024;-78
2021/03/10 01:29:44;;;;;;;18.88;9.85;;;3.00;94.20;;;;;;5075965;28;20033;-78
2021/03/10 01:32:09;;;;;;;17.85;10.55;;;3.00;94.30;;;;;;5075403;28;20052;-78
2021/03/10 01:34:35;;;;;;;16.08;9.80;;;2.80;94.30;;;;;;5074681;28;20086;-78
2021/03/10 01:37:00;;;;;;;17.95;9.15;;;2.80;94.40;;;;;;5075640;28;20032;-78
2021/03/10 01:39:26;;;;;;;16.50;9.05;;;2.70;94.40;;;;;;5076114;28;20017;-78
2021/03/10 01:41:51;;;;;;;16.52;9.30;;;2.60;94.40;;;;;;5057942;28;20025;-78
2021/03/10 01:44:17;;;;;;;16.63;9.05;;;2.60;94.50;;;;;;5068498;28;20044;-78
2021/03/10 01:46:43;;;;;;;15.15;10.07;;;2.50;94.50;;;;;;5059425;28;20040;-78
2021/03/10 01:49:09;;;;;;;15.98;9.45;;;2.40;94.60;;;;;;5055488;28;20028;-78
2021/03/10 01:51:35;;;;;;;18.77;10.25;;;2.40;94.60;;;;;;5055835;28;20036;-78
2021/03/10 01:54:00;;;;;;;17.48;9.60;;;2.40;94.70;;;;;;5055561;28;20025;-78
2021/03/10 01:56:27;;;;;;;18.40;10.23;;;2.40;94.70;;;;;;5039951;28;20394;-78
2021/03/10 01:58:53;;;;;;;21.35;10.50;;;2.30;94.70;;;;;;5058083;28;20020;-78
2021/03/10 02:01:19;;;;;;;16.33;9.70;;;2.30;94.80;;;;;;5056776;28;20033;-78
2021/03/10 02:03:45;;;;;;;16.88;9.77;;;2.40;94.90;;;;;;5055165;28;20025;-78
2021/03/10 02:06:18;;;;;;;19.58;9.82;;;2.30;94.80;;;;;;5055250;28;20043;-78
2021/03/10 02:08:54;;;;;;;19.40;10.20;;;2.40;94.90;;;;;;5054944;28;20391;-78
2021/03/10 02:11:35;;;;;;;22.00;11.63;;;2.40;94.80;;;;;;5074180;28;20552;-78
2021/03/10 02:14:13;;;;;;;20.67;9.38;;;2.30;94.80;;;;;;5074936;28;20406;-78
2021/03/10 02:16:55;;;;;;;17.23;10.18;;;2.40;94.80;;;;;;5075094;28;20028;-78
2021/03/10 02:19:30;;;;;;;17.17;10.37;;;2.30;94.80;;;;;;5062494;28;20029;-78
2021/03/10 02:22:32;;;;;;;18.65;10.38;;;2.40;94.80;;;;;;5055229;28;20302;-77
2021/03/10 02:25:12;;;;;;;19.40;11.18;;;2.40;94.90;;;;;;5048248;28;20071;-77
2021/03/10 02:27:54;;;;;;;16.13;9.93;;;2.40;94.70;;;;;;5055144;28;20112;-77
2021/03/10 02:30:22;;;;;;;20.30;11.50;;;2.50;94.80;;;;;;5054878;28;20056;-77
2021/03/10 02:32:57;;;;;;;20.50;11.52;;;2.40;94.70;;;;;;5059871;28;20116;-77
2021/03/10 02:35:24;;;;;;;19.15;10.75;;;2.50;94.80;;;;;;5074616;28;20025;-77
2021/03/10 02:37:53;;;;;;;19.55;11.10;;;2.50;94.80;;;;;;5056827;28;20604;-77
2021/03/10 02:40:23;;;;;;;21.20;11.48;;;2.60;94.80;;;;;;5065602;28;20044;-77
2021/03/10 02:42:49;;;;;;;18.80;11.65;;;2.60;94.80;;;;;;5054599;28;20032;-77
2021/03/10 02:45:16;;;;;;;26.35;12.60;;;2.70;94.80;;;;;;5055562;28;20394;-77
2021/03/10 02:47:42;;;;;;;24.48;13.18;;;2.70;94.70;;;;;;5056516;28;20012;-78
2021/03/10 02:50:09;;;;;;;26.38;13.30;;;2.80;94.80;;;;;;5056579;28;20428;-77
2021/03/10 02:52:35;;;;;;;23.30;14.02;;;2.80;95.10;;;;;;5074488;28;20036;-77
2021/03/10 02:55:02;;;;;;;29.77;14.75;;;3.00;94.80;;;;;;5068552;28;20036;-77
2021/03/10 02:57:29;;;;;;;22.70;13.45;;;3.00;94.70;;;;;;5074362;28;20058;-77
2021/03/10 02:59:54;;;;;;;31.50;17.00;;;3.00;94.70;;;;;;5074019;28;20056;-77
2021/03/10 03:02:20;;;;;;;34.22;18.10;;;3.10;94.80;;;;;;5065377;28;20075;-77
2021/03/10 03:04:45;;;;;;;32.00;17.33;;;3.20;94.80;;;;;;5056211;28;20025;-77
2021/03/10 03:07:11;;;;;;;29.20;17.38;;;3.20;94.80;;;;;;5074085;28;20056;-77
2021/03/10 03:09:38;;;;;;;26.85;17.55;;;3.30;94.80;;;;;;5065817;28;20482;-77
2021/03/10 03:12:07;;;;;;;30.80;17.85;;;3.30;94.70;;;;;;5053985;28;20025;-77
2021/03/10 03:14:34;;;;;;;33.28;18.02;;;3.40;94.70;;;;;;5070462;28;20016;-77
2021/03/10 03:17:01;;;;;;;31.70;18.15;;;3.40;94.70;;;;;;5073889;28;20263;-77
2021/03/10 03:19:28;;;;;;;32.78;18.10;;;3.50;94.70;;;;;;5073798;28;20045;-77
2021/03/10 03:21:55;;;;;;;31.65;19.08;;;3.60;94.70;;;;;;5073375;28;20460;-78
2021/03/10 03:24:21;;;;;;;33.15;18.58;;;3.50;94.70;;;;;;5073638;28;20020;-75
2021/03/10 03:26:47;;;;;;;34.45;17.75;;;3.60;94.70;;;;;;5073705;28;20121;-77
2021/03/10 03:29:13;;;;;;;30.02;17.55;;;3.70;94.70;;;;;;5073451;28;20031;-77
2021/03/10 03:31:40;;;;;;;30.58;17.45;;;3.70;94.70;;;;;;5073353;28;20048;-77
2021/03/10 03:34:06;;;;;;;29.92;18.50;;;3.70;94.70;;;;;;5073675;28;20033;-77
2021/03/10 03:36:33;;;;;;;36.83;19.17;;;3.80;94.80;;;;;;5073577;28;20028;-77
2021/03/10 03:39:01;;;;;;;30.85;18.15;;;3.80;94.70;;;;;;5073674;28;20029;-77
2021/03/10 03:41:27;;;;;;;32.40;18.38;;;3.90;94.80;;;;;;5073498;28;20536;-77
2021/03/10 03:43:52;;;;;;;29.58;18.83;;;3.90;94.80;;;;;;5053949;28;20033;-77
2021/03/10 03:46:18;;;;;;;31.23;19.00;;;3.90;94.70;;;;;;5053324;28;20025;-77
2021/03/10 03:48:43;;;;;;;29.10;17.50;;;3.90;94.70;;;;;;5035620;28;20029;-76
2021/03/10 03:51:26;;;;;;;25.70;17.38;;;4.00;94.70;;;;;;5066505;28;20067;-75
2021/03/10 03:54:05;;;;;;;33.83;17.95;;;4.00;94.70;;;;;;5055440;28;20052;-76
2021/03/10 03:56:31;;;;;;;29.98;18.55;;;4.00;94.70;;;;;;5073095;28;20134;-77
2021/03/10 03:58:57;;;;;;;27.95;17.10;;;4.10;94.80;;;;;;5073181;28;20542;-77
2021/03/10 04:01:24;;;;;;;27.88;17.50;;;4.10;94.80;;;;;;5073143;28;20024;-77
2021/03/10 04:03:49;;;;;;;23.95;16.27;;;4.10;94.80;;;;;;5073318;28;20028;-77
2021/03/10 04:06:16;;;;;;;30.35;17.42;;;4.10;94.70;;;;;;5072958;28;20107;-77
2021/03/10 04:08:43;;;;;;;31.95;17.48;;;4.20;94.70;;;;;;5072060;28;20086;-76
2021/03/10 04:11:17;;;;;;;28.05;16.60;;;4.20;94.70;;;;;;5052246;28;20025;-77
2021/03/10 04:13:42;;;;;;;33.28;18.25;;;4.30;94.70;;;;;;5052030;28;20025;-77
2021/03/10 04:16:08;;;;;;;31.65;18.75;;;4.20;94.60;;;;;;5073067;28;20078;-77
2021/03/10 04:18:36;;;;;;;31.63;18.33;;;4.20;94.60;;;;;;5054903;28;20024;-77
2021/03/10 04:21:01;;;;;;;32.70;18.60;;;4.20;94.60;;;;;;5052920;28;20159;-77
2021/03/10 04:23:27;;;;;;;31.80;17.70;;;4.20;94.60;;;;;;5065505;28;20060;-76
2021/03/10 04:25:52;;;;;;;30.20;18.60;;;4.20;94.50;;;;;;5072694;28;20032;-77
2021/03/10 04:28:18;;;;;;;32.05;17.45;;;4.20;94.60;;;;;;5073249;28;20028;-77
2021/03/10 04:30:43;;;;;;;27.52;17.15;;;4.20;94.60;;;;;;5065236;28;20033;-77
2021/03/10 04:33:09;;;;;;;26.98;16.90;;;4.20;94.60;;;;;;5073117;28;20055;-77
2021/03/10 04:35:34;;;;;;;31.23;17.25;;;4.20;94.60;;;;;;5076384;28;20028;-77
2021/03/10 04:38:00;;;;;;;29.50;17.17;;;4.10;94.50;;;;;;5057068;28;20029;-76
2021/03/10 04:40:25;;;;;;;27.98;17.05;;;4.10;94.50;;;;;;5038868;28;20071;-76
2021/03/10 04:42:51;;;;;;;30.80;17.45;;;4.10;94.50;;;;;;5067424;28;20039;-77
2021/03/10 04:45:17;;;;;;;29.55;16.95;;;4.10;94.40;;;;;;5076984;28;20020;-76
2021/03/10 04:47:43;;;;;;;30.75;16.83;;;4.00;94.40;;;;;;5058756;28;20020;-77
2021/03/10 04:50:10;;;;;;;31.90;17.35;;;4.00;94.40;;;;;;5044471;28;20467;-76
2021/03/10 04:52:36;;;;;;;31.45;17.92;;;3.90;94.40;;;;;;5058588;28;20025;-76
2021/03/10 04:55:03;;;;;;;39.83;17.70;;;3.90;94.50;;;;;;5076529;28;20029;-76
2021/03/10 04:57:28;;;;;;;35.00;18.13;;;3.90;94.50;;;;;;5057479;28;20037;-76
2021/03/10 04:59:54;;;;;;;30.38;15.68;;;3.90;94.50;;;;;;5067282;28;20031;-76
2021/03/10 05:02:20;;;;;;;31.80;16.35;;;3.80;94.50;;;;;;5076311;28;20097;-77
2021/03/10 05:04:45;;;;;;;29.05;15.25;;;3.90;94.60;;;;;;5069952;28;20506;-76
2021/03/10 05:07:11;;;;;;;31.70;16.58;;;3.80;94.60;;;;;;5068817;28;20013;-76
2021/03/10 05:09:36;;;;;;;28.38;15.98;;;3.80;94.60;;;;;;5056203;28;20025;-76
2021/03/10 05:12:02;;;;;;;31.17;15.48;;;3.90;94.70;;;;;;5056364;28;20043;-76
2021/03/10 05:14:27;;;;;;;30.98;16.75;;;3.90;94.70;;;;;;5056377;28;20072;-76
2021/03/10 05:16:53;;;;;;;30.15;17.52;;;4.00;94.80;;;;;;5055949;28;20032;-76
2021/03/10 05:19:18;;;;;;;37.75;16.67;;;4.00;94.70;;;;;;5038502;28;20427;-76
2021/03/10 05:21:44;;;;;;;35.30;17.88;;;4.10;94.70;;;;;;5056440;28;20021;-76
2021/03/10 05:24:10;;;;;;;33.10;18.35;;;4.10;94.60;;;;;;5055799;28;20426;-76
2021/03/10 05:26:38;;;;;;;36.80;18.98;;;4.20;94.70;;;;;;5058261;28;20021;-76
2021/03/10 05:29:03;;;;;;;38.53;19.80;;;4.20;94.60;;;;;;5073363;28;20078;-76
2021/03/10 05:31:29;;;;;;;37.10;19.20;;;4.30;94.60;;;;;;5058826;28;20429;-76
2021/03/10 05:33:54;;;;;;;35.00;18.60;;;4.30;94.60;;;;;;5058606;28;20441;-75
2021/03/10 05:36:23;;;;;;;42.45;19.67;;;4.30;94.60;;;;;;5061495;28;20025;-76
2021/03/10 05:38:49;;;;;;;40.15;20.02;;;4.30;94.50;;;;;;5052311;28;20032;-76
2021/03/10 05:41:15;;;;;;;36.90;18.02;;;4.30;94.50;;;;;;5063890;28;20029;-76
2021/03/10 05:43:41;;;;;;;42.60;20.23;;;4.30;94.50;;;;;;5056237;28;20371;-76
2021/03/10 05:46:07;;;;;;;36.05;19.45;;;4.30;94.50;;;;;;5054650;28;20063;-76
2021/03/10 05:48:34;;;;;;;40.80;19.05;;;4.30;94.50;;;;;;5055824;28;20064;-77
2021/03/10 05:51:00;;;;;;;40.63;19.88;;;4.20;94.50;;;;;;5059531;28;20052;-77
2021/03/10 05:53:28;;;;;;;41.13;18.60;;;4.20;94.60;;;;;;5053092;28;20481;-76
2021/03/10 05:55:59;;;;;;;39.35;18.65;;;4.20;94.70;;;;;;5060704;28;20052;-76
2021/03/10 05:58:24;;;;;;;41.78;21.50;;;4.10;94.70;;;;;;5061658;28;20031;-77
2021/03/10 06:00:50;;;;;;;50.67;20.83;;;4.10;94.80;;;;;;5063681;28;20029;-77
2021/03/10 06:03:15;;;;;;;44.45;22.02;;;4.10;94.80;;;;;;5070079;28;20390;-77
2021/03/10 06:05:42;;;;;;;42.60;20.90;;;4.10;94.80;;;;;;5062552;28;20032;-77
2021/03/10 06:08:10;;;;;;;44.00;21.90;;;4.10;94.80;;;;;;5048624;28;20017;-77
2021/03/10 06:10:41;;;;;;;44.30;21.83;;;4.10;94.90;;;;;;5065373;28;20074;-77
2021/03/10 06:13:20;;;;;;;50.70;23.85;;;4.20;95.00;;;;;;5066338;28;20021;-77
2021/03/10 06:15:46;;;;;;;52.13;24.45;;;4.20;95.00;;;;;;5055683;28;20052;-77
2021/03/10 06:18:23;;;;;;;52.03;25.13;;;4.20;95.10;;;;;;5060229;28;20104;-78
2021/03/10 06:20:48;;;;;;;48.95;24.35;;;4.20;95.10;;;;;;5065438;28;20050;-77
2021/03/10 06:23:15;;;;;;;57.60;26.08;;;4.20;95.10;;;;;;5063488;28;20070;-76
2021/03/10 06:26:12;;;;;;;57.05;26.40;;;4.20;95.10;;;;;;5064609;28;20029;-77
2021/03/10 06:28:39;;;;;;;56.72;26.70;;;4.20;95.20;;;;;;5068076;28;20490;-75
2021/03/10 06:31:30;;;;;;;56.13;27.17;;;4.20;95.20;;;;;;5053186;28;20490;-76
2021/03/10 06:34:08;;;;;;;60.65;28.88;;;4.20;95.20;;;;;;5071859;28;20493;-77
2021/03/10 06:36:36;;;;;;;65.38;29.35;;;4.20;95.30;;;;;;5073207;28;20028;-77
2021/03/10 06:39:04;;;;;;;58.13;28.20;;;4.20;95.30;;;;;;5062575;28;20021;-75
2021/03/10 06:41:42;;;;;;;68.68;31.00;;;4.20;95.30;;;;;;5056092;28;20482;-75
2021/03/10 06:44:34;;;;;;;65.25;32.35;;;4.20;95.40;;;;;;5074327;28;20021;-77
2021/03/10 06:47:02;;;;;;;64.63;30.92;;;4.20;95.40;;;;;;5047343;28;20041;-76
2021/03/10 06:49:32;;;;;;;69.80;31.85;;;4.30;95.40;;;;;;5070676;28;20381;-78
2021/03/10 06:52:00;;;;;;;72.43;33.88;;;4.30;95.40;;;;;;5074376;28;20036;-75
2021/03/10 06:54:27;;;;;;;77.13;36.42;;;4.30;95.50;;;;;;5057598;28;20043;-75
2021/03/10 06:57:08;;;;;;;75.32;35.80;;;4.30;95.50;;;;;;5054152;28;20045;-75
2021/03/10 06:59:39;;;;;;;78.50;36.08;;;4.40;95.50;;;;;;5038590;28;20482;-75
2021/03/10 07:02:08;;;;;;;84.65;37.90;;;4.40;95.50;;;;;;5058147;28;20020;-76
2021/03/10 07:04:36;;;;;;;87.88;39.20;;;4.40;95.60;;;;;;5057266;28;20021;-76
2021/03/10 07:07:02;;;;;;;79.28;38.05;;;4.40;95.60;;;;;;5071080;28;20037;-76
2021/03/10 07:09:29;;;;;;;88.00;39.40;;;4.50;95.60;;;;;;5065749;28;20359;-76
2021/03/10 07:11:58;;;;;;;83.75;38.92;;;4.50;95.60;;;;;;5044603;28;20033;-77
2021/03/10 07:14:28;;;;;;;90.45;40.67;;;4.50;95.60;;;;;;5062710;28;20033;-77
2021/03/10 07:16:56;;;;;;;92.00;41.58;;;4.60;95.70;;;;;;5062774;28;20033;-79
2021/03/10 07:19:21;;;;;;;97.28;43.38;;;4.60;95.70;;;;;;5040862;28;20025;-79
2021/03/10 07:21:51;;;;;;;88.85;43.15;;;4.60;95.80;;;;;;5055624;28;20044;-77
2021/03/10 07:24:23;;;;;;;89.05;41.85;;;4.70;95.80;;;;;;5067735;28;20037;-78
2021/03/10 07:26:50;;;;;;;90.78;40.80;;;4.70;95.80;;;;;;5053212;28;20052;-77
2021/03/10 07:29:17;;;;;;;90.25;42.97;;;4.70;95.70;;;;;;5063273;28;20108;-77
2021/03/10 07:31:44;;;;;;;93.32;42.38;;;4.70;95.70;;;;;;5068369;28;20093;-76
2021/03/10 07:34:10;;;;;;;90.40;43.83;;;4.80;95.80;;;;;;5072528;28;20013;-78
2021/03/10 07:36:43;;;;;;;89.50;42.70;;;4.80;96.00;;;;;;5055571;28;20035;-77
2021/03/10 07:39:24;;;;;;;89.10;42.38;;;4.80;95.70;;;;;;5071748;28;20023;-77
2021/03/10 07:41:50;;;;;;;91.50;43.17;;;4.90;95.70;;;;;;5050916;28;20068;-77
2021/03/10 07:44:23;;;;;;;87.85;44.45;;;4.90;95.70;;;;;;5068053;28;20048;-77
2021/03/10 07:47:07;;;;;;;95.43;44.97;;;4.90;95.70;;;;;;5069784;28;20048;-78
2021/03/10 07:49:34;;;;;;;91.53;44.28;;;5.00;95.70;;;;;;5060831;28;20063;-78
2021/03/10 07:52:17;;;;;;;86.10;44.67;;;5.00;95.70;;;;;;5066635;28;20036;-77
2021/03/10 07:54:43;;;;;;;92.07;43.97;;;5.00;95.60;;;;;;5069420;28;20027;-77
2021/03/10 07:57:16;;;;;;;82.53;41.20;;;5.10;95.70;;;;;;5068597;28;20099;-77
2021/03/10 07:59:52;;;;;;;85.53;43.08;;;5.10;95.60;;;;;;5048164;28;20037;-77
2021/03/10 08:02:24;;;;;;;90.90;44.08;;;5.10;95.60;;;;;;5068076;28;20065;-78
2021/03/10 08:05:01;;;;;;;94.22;46.47;;;5.10;95.60;;;;;;5072831;28;20031;-78
2021/03/10 08:07:33;;;;;;;95.25;46.13;;;5.20;95.60;;;;;;5049614;28;20049;-79
2021/03/10 08:10:04;;;;;;;84.43;42.67;;;5.20;95.50;;;;;;5045081;28;20021;-78
2021/03/10 08:12:38;;;;;;;86.18;43.67;;;5.20;95.50;;;;;;5035519;28;20025;-78
2021/03/10 08:15:22;;;;;;;85.40;43.20;;;5.30;95.50;;;;;;5043465;28;20025;-79
2021/03/10 08:17:48;;;;;;;85.35;44.58;;;5.30;95.50;;;;;;5065741;28;20029;-80
2021/03/10 08:20:14;;;;;;;82.25;43.30;;;5.30;95.40;;;;;;5035701;28;20033;-80
2021/03/10 08:22:43;;;;;;;83.82;44.17;;;5.40;95.40;;;;;;5056178;28;20402;-77
2021/03/10 08:25:14;;;;;;;79.10;41.33;;;5.40;95.30;;;;;;5063295;28;20359;-79
2021/03/10 08:27:43;;;;;;;82.88;43.35;;;5.50;95.60;;;;;;5035331;28;20068;-79
2021/03/10 08:30:14;;;;;;;84.75;42.88;;;5.60;95.30;;;;;;5048085;28;20562;-79
2021/03/10 08:32:51;;;;;;;84.53;43.55;;;5.60;95.30;;;;;;5036949;28;20056;-79
2021/03/10 08:35:23;;;;;;;79.43;39.30;;;5.70;95.30;;;;;;5033737;28;20064;-79
2021/03/10 08:37:56;;;;;;;81.33;41.30;;;5.80;95.20;;;;;;5050560;28;20068;-78
2021/03/10 08:40:26;;;;;;;77.55;40.88;;;5.90;95.10;;;;;;5048669;28;20525;-77
2021/03/10 08:42:53;;;;;;;79.07;39.58;;;6.00;95.00;;;;;;5047753;28;20040;-79
2021/03/10 08:45:26;;;;;;;78.63;40.95;;;6.00;94.90;;;;;;5049642;28;20061;-76
2021/03/10 08:47:55;;;;;;;;;;;6.10;94.90;;;;;;5051023;28;20025;-76
2021/03/10 08:50:32;;;;;;;69.15;37.72;;;6.20;94.80;;;;;;5052622;28;19912;-77
2021/03/10 08:52:58;;;;;;;73.80;39.30;;;6.20;94.70;;;;;;5051113;28;20352;-76
2021/03/10 08:55:26;;;;;;;76.85;40.47;;;6.30;94.60;;;;;;5051989;28;20047;-77
2021/03/10 08:57:53;;;;;;;73.20;38.72;;;6.30;94.30;;;;;;5044112;28;20033;-77
2021/03/10 09:00:22;;;;;;;70.47;38.05;;;6.30;94.30;;;;;;5050952;28;20032;-78
2021/03/10 09:02:50;;;;;;;74.45;40.33;;;6.40;94.20;;;;;;5052673;28;20029;-77
2021/03/10 09:05:17;;;;;;;74.13;40.50;;;6.40;94.20;;;;;;5033993;28;20029;-76
2021/03/10 09:07:46;;;;;;;68.22;37.38;;;6.50;94.20;;;;;;5051750;28;20383;-76
2021/03/10 09:10:16;;;;;;;69.10;38.28;;;6.50;94.00;;;;;;5051174;28;20017;-76
2021/03/10 09:12:44;;;;;;;67.75;37.95;;;6.60;93.90;;;;;;5047807;28;20052;-76
2021/03/10 09:15:15;;;;;;;67.80;36.10;;;6.60;93.70;;;;;;5051834;28;20021;-79
2021/03/10 09:17:41;;;;;;;67.28;37.95;;;6.60;93.70;;;;;;5045927;28;20029;-76
2021/03/10 09:20:12;;;;;;;68.65;36.70;;;6.70;93.70;;;;;;5052302;28;20025;-77
2021/03/10 09:22:45;;;;;;;60.15;34.40;;;6.80;93.50;;;;;;5039819;28;20422;-77
2021/03/10 09:25:13;;;;;;;73.25;37.72;;;6.80;93.40;;;;;;5042481;28;20116;-79
2021/03/10 09:27:39;;;;;;;64.75;37.03;;;6.90;93.50;;;;;;5055356;28;20421;-79
2021/03/10 09:30:10;;;;;;;72.53;39.05;;;7.00;93.30;;;;;;5051000;28;20078;-79
2021/03/10 09:32:44;;;;;;;68.70;38.38;;;7.10;93.10;;;;;;5060801;28;20128;-79
2021/03/10 09:35:21;;;;;;;70.38;37.60;;;7.10;93.00;;;;;;5063138;28;20074;-78
2021/03/10 09:37:50;;;;;;;68.57;36.80;;;7.20;92.90;;;;;;5060661;28;20090;-78
2021/03/10 09:40:17;;;;;;;65.68;38.03;;;7.10;92.60;;;;;;5073370;28;20040;-78
2021/03/10 09:42:55;;;;;;;67.75;37.95;;;7.20;92.80;;;;;;5061569;28;20052;-79
2021/03/10 09:45:22;;;;;;;65.63;38.13;;;7.20;92.80;;;;;;5075490;28;20498;-78
2021/03/10 09:47:48;;;;;;;68.30;37.97;;;7.30;92.50;;;;;;5066297;28;20471;-78
2021/03/10 09:50:24;;;;;;;63.10;36.75;;;7.30;92.50;;;;;;5056253;28;20407;-78
2021/03/10 09:52:49;;;;;;;64.95;36.75;;;7.40;92.50;;;;;;5065210;28;20603;-77
2021/03/10 09:55:19;;;;;;;64.13;37.05;;;7.40;92.40;;;;;;5071085;28;20119;-77
2021/03/10 09:57:44;;;;;;;60.20;35.53;;;7.40;92.20;;;;;;5062692;28;20052;-77
2021/03/10 10:00:22;;;;;;;59.22;34.60;;;7.50;92.00;;;;;;5074624;28;20060;-77
2021/03/10 10:02:48;;;;;;;60.40;35.78;;;7.50;92.00;;;;;;5071971;28;20378;-77
2021/03/10 10:05:21;;;;;;;56.10;33.80;;;7.50;91.90;;;;;;5075528;28;20024;-77
2021/03/10 10:07:47;;;;;;;54.90;32.65;;;7.60;91.80;;;;;;5065678;28;20029;-77
2021/03/10 10:10:13;;;;;;;57.92;32.30;;;7.70;91.90;;;;;;5070184;28;20524;-77
2021/03/10 10:12:43;;;;;;;55.60;32.33;;;7.70;91.50;;;;;;5063698;28;20032;-76
2021/03/10 10:15:09;;;;;;;57.05;32.28;;;7.80;91.50;;;;;;5059753;28;20040;-77
2021/03/10 10:17:35;;;;;;;60.15;34.22;;;7.80;91.10;;;;;;5056357;28;20036;-76
2021/03/10 10:20:00;;;;;;;53.05;32.78;;;7.80;91.30;;;;;;5059763;28;20090;-76
2021/03/10 10:22:26;;;;;;;55.38;31.75;;;7.90;91.30;;;;;;5055875;28;20035;-76
2021/03/10 10:24:51;;;;;;;53.10;31.52;;;8.00;91.10;;;;;;5045996;28;20035;-75
2021/03/10 10:27:17;;;;;;;57.65;32.65;;;8.00;90.90;;;;;;5055289;28;20103;-76
2021/03/10 10:29:42;;;;;;;51.58;31.10;;;8.10;90.80;;;;;;5064122;28;20657;-77
2021/03/10 10:32:11;;;;;;;52.40;29.73;;;8.10;90.60;;;;;;5064014;28;20063;-76
2021/03/10 10:34:37;;;;;;;47.38;29.67;;;8.20;90.60;;;;;;5037775;28;20387;-77
2021/03/10 10:37:02;;;;;;;47.70;27.50;;;8.30;90.50;;;;;;5054648;28;20104;-77
2021/03/10 10:39:28;;;;;;;48.80;28.50;;;8.40;90.30;;;;;;5064520;28;20029;-77
2021/03/10 10:41:53;;;;;;;47.05;28.33;;;8.50;90.10;;;;;;5054526;28;20025;-76
2021/03/10 10:44:19;;;;;;;49.15;29.65;;;8.60;90.00;;;;;;5054464;28;20475;-77
2021/03/10 10:46:44;;;;;;;46.33;29.05;;;8.70;89.50;;;;;;5063551;28;20021;-78
2021/03/10 10:49:10;;;;;;;48.53;27.65;;;8.70;88.80;;;;;;5068272;28;20115;-75
2021/03/10 10:51:35;;;;;;;39.90;25.63;;;8.80;87.70;;;;;;5068473;28;20052;-76
2021/03/10 10:54:01;;;;;;;45.00;24.30;;;8.80;87.90;;;;;;5074509;28;20032;-77
2021/03/10 10:56:26;;;;;;;42.10;24.92;;;8.90;87.80;;;;;;5057132;28;20037;-78
2021/03/10 10:58:52;;;;;;;41.00;25.08;;;8.90;86.50;;;;;;5036338;28;20025;-77
2021/03/10 11:01:17;;;;;;;40.78;24.85;;;8.90;86.50;;;;;;5048218;28;20035;-77
2021/03/10 11:03:43;;;;;;;41.78;24.38;;;8.90;85.50;;;;;;5045892;28;20036;-76
2021/03/10 11:06:09;;;;;;;37.28;22.38;;;8.90;85.80;;;;;;5067845;28;20078;-76
2021/03/10 11:08:35;;;;;;;39.58;23.13;;;9.00;85.30;;;;;;5073984;28;20032;-76
2021/03/10 11:11:00;;;;;;;34.08;22.33;;;9.00;85.50;;;;;;5057972;28;20025;-76
2021/03/10 11:13:26;;;;;;;33.05;21.50;;;9.10;84.70;;;;;;5053606;28;20375;-76
2021/03/10 11:15:51;;;;;;;32.65;19.90;;;9.20;84.80;;;;;;5057122;28;20029;-77
2021/03/10 11:18:17;;;;;;;34.58;21.13;;;9.30;84.60;;;;;;5071427;28;20063;-77
2021/03/10 11:20:42;;;;;;;30.08;18.58;;;9.40;83.60;;;;;;5055215;28;20032;-77
2021/03/10 11:23:08;;;;;;;35.95;19.58;;;9.40;83.30;;;;;;5070205;28;20028;-77
2021/03/10 11:25:33;;;;;;;31.42;18.25;;;9.50;82.50;;;;;;5055436;28;20033;-78
2021/03/10 11:27:59;;;;;;;31.40;18.30;;;9.60;81.20;;;;;;5057696;28;20470;-78
2021/03/10 11:30:24;;;;;;;28.45;17.75;;;9.60;80.70;;;;;;5055252;28;20467;-78
2021/03/10 11:32:50;;;;;;;29.88;17.88;;;9.70;80.20;;;;;;5055593;28;20053;-78
2021/03/10 11:35:16;;;;;;;27.75;17.52;;;9.70;78.90;;;;;;5069479;28;20024;-77
2021/03/10 11:37:42;;;;;;;30.25;17.90;;;9.70;79.40;;;;;;5070938;28;20028;-78
2021/03/10 11:40:08;;;;;;;30.77;18.45;;;9.80;78.80;;;;;;5065480;28;20036;-78
2021/03/10 11:42:34;;;;;;;29.08;17.90;;;9.80;77.80;;;;;;5063286;28;20021;-75
2021/03/10 11:45:00;;;;;;;29.02;17.40;;;9.80;78.10;;;;;;5039801;28;20025;-76
2021/03/10 11:47:25;;;;;;;28.20;16.88;;;9.80;77.30;;;;;;5070721;28;20489;-76
2021/03/10 11:49:51;;;;;;;32.75;17.13;;;9.90;77.70;;;;;;5065386;28;20144;-75
2021/03/10 11:52:17;;;;;;;28.45;16.38;;;9.90;77.40;;;;;;5066505;28;20025;-76
2021/03/10 11:54:42;;;;;;;26.85;16.60;;;10.00;77.60;;;;;;5058510;28;20023;-76
2021/03/10 11:57:08;;;;;;;26.75;15.75;;;10.00;76.70;;;;;;5071694;28;20489;-77
2021/03/10 11:59:33;;;;;;;27.27;16.73;;;10.00;76.70;;;;;;5068395;28;20064;-78
2021/03/10 12:02:00;;;;;;;26.45;15.82;;;10.00;76.50;;;;;;5061774;28;20032;-76
2021/03/10 12:04:25;;;;;;;24.88;16.42;;;10.00;75.60;;;;;;5049689;28;20033;-75
2021/03/10 12:06:51;;;;;;;27.33;16.52;;;10.00;76.20;;;;;;5064458;28;20090;-77
2021/03/10 12:27:24;;;;;;;24.90;15.68;;;10.50;73.70;;;;;;5036556;28;20503;-75
2021/03/10 12:29:54;;;;;;;24.58;17.25;;;10.60;73.90;;;;;;5033309;28;20356;-76
2021/03/10 12:32:24;;;;;;;24.23;16.55;;;10.70;73.50;;;;;;5044474;28;20037;-76
2021/03/10 12:34:51;;;;;;;25.08;16.40;;;10.80;73.40;;;;;;5053423;28;20367;-76
2021/03/10 12:37:16;;;;;;;28.75;17.10;;;10.90;73.70;;;;;;5052962;28;20429;-76
2021/03/10 12:39:43;;;;;;;22.58;15.20;;;11.00;73.10;;;;;;5051842;28;20025;-76
2021/03/10 12:42:09;;;;;;;24.60;16.33;;;11.10;72.70;;;;;;5051016;28;20047;-76
2021/03/10 12:44:41;;;;;;;21.42;15.38;;;11.20;72.20;;;;;;5029530;28;20021;-77
2021/03/10 12:47:08;;;;;;;27.05;16.35;;;11.40;71.70;;;;;;5049914;28;20032;-76
2021/03/10 12:49:33;;;;;;;24.77;16.92;;;11.40;71.20;;;;;;5036685;28;20034;-76
2021/03/10 12:51:59;;;;;;;25.52;17.77;;;11.40;70.80;;;;;;5022255;28;20021;-75
2021/03/10 12:54:25;;;;;;;23.33;15.57;;;11.40;71.10;;;;;;5034955;28;20083;-75
2021/03/10 12:56:54;;;;;;;23.55;15.73;;;11.50;70.60;;;;;;5047838;28;20137;-75
2021/03/10 12:59:20;;;;;;;24.10;16.48;;;11.50;69.30;;;;;;5057032;28;20082;-76
2021/03/10 13:01:46;;;;;;;20.52;14.57;;;11.50;69.50;;;;;;5043543;28;20108;-75